sensor_id;sensor_type;location;lat;lon;timestamp;P1;durP1;ratioP1;P2;durP2;ratioP2
9156;SDS011;4613;48.392;9.998;2023-03-01T00:00:01;4.70;;;3.10;;
9156;SDS011;4613;48.392;9.998;2023-03-01T00:03:00;6.40;;;3.15;;
9156;SDS011;4613;48.392;9.998;2023-03-01T00:05:49;5.47;;;3.88;;
9156;SDS011;4613;48.392;9.998;2023-03-01T00:08:38;5.60;;;3.38;;
9156;SDS011;4613;48.392;9.998;2023-03-01T00:11:29;5.57;;;3.58;;
9156;SDS011;4613;48.392;9.998;2023-03-01T00:14:19;4.72;;;3.22;;
9156;SDS011;4613;48.392;9.998;2023-03-01T00:17:08;4.15;;;3.15;;
9156;SDS011;4613;48.392;9.998;2023-03-01T00:19:57;5.53;;;3.30;;
9156;SDS011;4613;48.392;9.998;2023-03-01T00:22:46;4.22;;;3.25;;
9156;SDS011;4613;48.392;9.998;2023-03-01T00:25:40;4.53;;;3.33;;
9156;SDS011;4613;48.392;9.998;2023-03-01T00:28:31;5.75;;;3.42;;
9156;SDS011;4613;48.392;9.998;2023-03-01T00:31:24;3.70;;;3.05;;
9156;SDS011;4613;48.392;9.998;2023-03-01T00:34:15;5.30;;;3.80;;
9156;SDS011;4613;48.392;9.998;2023-03-01T00:37:05;7.03;;;3.30;;
9156;SDS011;4613;48.392;9.998;2023-03-01T00:39:55;6.05;;;3.47;;
9156;SDS011;4613;48.392;9.998;2023-03-01T00:42:44;5.45;;;3.83;;
9156;SDS011;4613;48.392;9.998;2023-03-01T00:45:33;5.63;;;3.80;;
9156;SDS011;4613;48.392;9.998;2023-03-01T00:48:23;3.83;;;3.22;;
9156;SDS011;4613;48.392;9.998;2023-03-01T00:51:16;4.50;;;3.40;;
9156;SDS011;4613;48.392;9.998;2023-03-01T00:54:10;5.45;;;3.05;;
9156;SDS011;4613;48.392;9.998;2023-03-01T00:56:59;5.53;;;3.67;;
9156;SDS011;4613;48.392;9.998;2023-03-01T00:59:49;4.65;;;3.58;;
9156;SDS011;4613;48.392;9.998;2023-03-01T01:02:38;4.22;;;3.50;;
9156;SDS011;4613;48.392;9.998;2023-03-01T01:05:28;4.82;;;3.80;;
9156;SDS011;4613;48.392;9.998;2023-03-01T01:08:18;7.07;;;3.60;;
9156;SDS011;4613;48.392;9.998;2023-03-01T01:11:10;5.47;;;3.88;;
9156;SDS011;4613;48.392;9.998;2023-03-01T01:14:00;5.75;;;3.55;;
9156;SDS011;4613;48.392;9.998;2023-03-01T01:16:51;8.30;;;3.97;;
9156;SDS011;4613;48.392;9.998;2023-03-01T01:19:41;6.85;;;3.70;;
9156;SDS011;4613;48.392;9.998;2023-03-01T01:22:30;5.90;;;3.75;;
9156;SDS011;4613;48.392;9.998;2023-03-01T01:25:20;7.40;;;3.85;;
9156;SDS011;4613;48.392;9.998;2023-03-01T01:28:09;5.35;;;3.35;;
9156;SDS011;4613;48.392;9.998;2023-03-01T01:30:59;4.78;;;3.45;;
9156;SDS011;4613;48.392;9.998;2023-03-01T01:33:48;5.78;;;3.40;;
9156;SDS011;4613;48.392;9.998;2023-03-01T01:36:38;6.72;;;3.72;;
9156;SDS011;4613;48.392;9.998;2023-03-01T01:39:28;4.45;;;3.38;;
9156;SDS011;4613;48.392;9.998;2023-03-01T01:42:18;5.65;;;3.90;;
9156;SDS011;4613;48.392;9.998;2023-03-01T01:45:28;6.10;;;3.83;;
9156;SDS011;4613;48.392;9.998;2023-03-01T01:48:23;4.63;;;3.47;;
9156;SDS011;4613;48.392;9.998;2023-03-01T01:51:36;4.63;;;3.17;;
9156;SDS011;4613;48.392;9.998;2023-03-01T01:54:36;4.80;;;3.42;;
9156;SDS011;4613;48.392;9.998;2023-03-01T01:57:34;4.30;;;3.28;;
9156;SDS011;4613;48.392;9.998;2023-03-01T02:00:29;6.57;;;3.63;;
9156;SDS011;4613;48.392;9.998;2023-03-01T02:03:22;4.35;;;3.75;;
9156;SDS011;4613;48.392;9.998;2023-03-01T02:06:26;4.88;;;3.25;;
9156;SDS011;4613;48.392;9.998;2023-03-01T02:09:20;5.45;;;3.35;;
9156;SDS011;4613;48.392;9.998;2023-03-01T02:12:11;6.07;;;3.25;;
9156;SDS011;4613;48.392;9.998;2023-03-01T02:15:01;4.82;;;3.45;;
9156;SDS011;4613;48.392;9.998;2023-03-01T02:17:50;5.93;;;3.78;;
9156;SDS011;4613;48.392;9.998;2023-03-01T02:24:00;6.10;;;3.50;;
9156;SDS011;4613;48.392;9.998;2023-03-01T02:26:55;7.28;;;3.75;;
9156;SDS011;4613;48.392;9.998;2023-03-01T02:29:46;5.25;;;3.53;;
9156;SDS011;4613;48.392;9.998;2023-03-01T02:32:36;4.22;;;3.25;;
9156;SDS011;4613;48.392;9.998;2023-03-01T02:35:25;5.45;;;3.58;;
9156;SDS011;4613;48.392;9.998;2023-03-01T02:38:15;5.65;;;3.88;;
9156;SDS011;4613;48.392;9.998;2023-03-01T02:41:05;6.30;;;4.10;;
9156;SDS011;4613;48.392;9.998;2023-03-01T02:43:55;5.07;;;3.70;;
9156;SDS011;4613;48.392;9.998;2023-03-01T02:46:47;5.82;;;3.70;;
9156;SDS011;4613;48.392;9.998;2023-03-01T02:49:48;6.38;;;4.40;;
9156;SDS011;4613;48.392;9.998;2023-03-01T02:52:40;4.22;;;3.28;;
9156;SDS011;4613;48.392;9.998;2023-03-01T02:55:36;6.95;;;3.60;;
9156;SDS011;4613;48.392;9.998;2023-03-01T02:58:27;4.30;;;3.22;;
9156;SDS011;4613;48.392;9.998;2023-03-01T03:01:21;6.65;;;4.45;;
9156;SDS011;4613;48.392;9.998;2023-03-01T03:04:11;5.22;;;3.28;;
9156;SDS011;4613;48.392;9.998;2023-03-01T03:07:06;5.45;;;3.58;;
9156;SDS011;4613;48.392;9.998;2023-03-01T03:09:56;5.10;;;3.75;;
9156;SDS011;4613;48.392;9.998;2023-03-01T03:13:04;4.60;;;3.25;;
9156;SDS011;4613;48.392;9.998;2023-03-01T03:15:59;5.82;;;4.15;;
9156;SDS011;4613;48.392;9.998;2023-03-01T03:18:48;7.68;;;3.85;;
9156;SDS011;4613;48.392;9.998;2023-03-01T03:21:37;6.53;;;4.28;;
9156;SDS011;4613;48.392;9.998;2023-03-01T03:24:26;6.15;;;3.80;;
9156;SDS011;4613;48.392;9.998;2023-03-01T03:27:27;5.22;;;3.42;;
9156;SDS011;4613;48.392;9.998;2023-03-01T03:30:17;4.80;;;3.58;;
9156;SDS011;4613;48.392;9.998;2023-03-01T03:33:09;4.80;;;3.85;;
9156;SDS011;4613;48.392;9.998;2023-03-01T03:35:59;5.28;;;2.95;;
9156;SDS011;4613;48.392;9.998;2023-03-01T03:38:48;6.65;;;4.07;;
9156;SDS011;4613;48.392;9.998;2023-03-01T03:41:38;5.45;;;3.25;;
9156;SDS011;4613;48.392;9.998;2023-03-01T03:44:27;4.93;;;3.55;;
9156;SDS011;4613;48.392;9.998;2023-03-01T03:47:16;6.25;;;4.15;;
9156;SDS011;4613;48.392;9.998;2023-03-01T03:50:05;5.80;;;3.55;;
9156;SDS011;4613;48.392;9.998;2023-03-01T03:52:55;6.32;;;3.65;;
9156;SDS011;4613;48.392;9.998;2023-03-01T03:55:47;5.65;;;3.75;;
9156;SDS011;4613;48.392;9.998;2023-03-01T03:58:40;4.97;;;3.05;;
9156;SDS011;4613;48.392;9.998;2023-03-01T04:01:29;5.95;;;3.67;;
9156;SDS011;4613;48.392;9.998;2023-03-01T04:04:18;6.72;;;4.10;;
9156;SDS011;4613;48.392;9.998;2023-03-01T04:07:08;5.28;;;4.18;;
9156;SDS011;4613;48.392;9.998;2023-03-01T04:09:57;5.05;;;3.58;;
9156;SDS011;4613;48.392;9.998;2023-03-01T04:12:47;6.05;;;3.15;;
9156;SDS011;4613;48.392;9.998;2023-03-01T04:15:36;7.55;;;3.97;;
9156;SDS011;4613;48.392;9.998;2023-03-01T04:18:25;5.65;;;3.15;;
9156;SDS011;4613;48.392;9.998;2023-03-01T04:21:16;4.43;;;3.35;;
9156;SDS011;4613;48.392;9.998;2023-03-01T04:24:05;4.68;;;3.60;;
9156;SDS011;4613;48.392;9.998;2023-03-01T04:26:55;4.88;;;3.33;;
9156;SDS011;4613;48.392;9.998;2023-03-01T04:29:45;5.78;;;4.40;;
9156;SDS011;4613;48.392;9.998;2023-03-01T04:32:35;5.82;;;3.67;;
9156;SDS011;4613;48.392;9.998;2023-03-01T04:35:24;6.18;;;3.72;;
9156;SDS011;4613;48.392;9.998;2023-03-01T04:38:13;5.65;;;3.72;;
9156;SDS011;4613;48.392;9.998;2023-03-01T04:41:02;5.70;;;3.38;;
9156;SDS011;4613;48.392;9.998;2023-03-01T04:43:53;5.88;;;4.10;;
9156;SDS011;4613;48.392;9.998;2023-03-01T04:46:42;5.60;;;3.92;;
9156;SDS011;4613;48.392;9.998;2023-03-01T04:49:32;5.95;;;3.80;;
9156;SDS011;4613;48.392;9.998;2023-03-01T04:52:22;5.10;;;4.00;;
9156;SDS011;4613;48.392;9.998;2023-03-01T04:55:11;6.13;;;4.05;;
9156;SDS011;4613;48.392;9.998;2023-03-01T04:58:01;7.47;;;3.63;;
9156;SDS011;4613;48.392;9.998;2023-03-01T05:00:50;7.82;;;4.32;;
9156;SDS011;4613;48.392;9.998;2023-03-01T05:03:40;7.32;;;4.05;;
9156;SDS011;4613;48.392;9.998;2023-03-01T05:06:31;6.30;;;3.85;;
9156;SDS011;4613;48.392;9.998;2023-03-01T05:09:21;8.38;;;3.75;;
9156;SDS011;4613;48.392;9.998;2023-03-01T05:12:10;4.65;;;3.47;;
9156;SDS011;4613;48.392;9.998;2023-03-01T05:15:00;5.45;;;4.20;;
9156;SDS011;4613;48.392;9.998;2023-03-01T05:17:51;5.95;;;4.07;;
9156;SDS011;4613;48.392;9.998;2023-03-01T05:20:41;4.80;;;3.65;;
9156;SDS011;4613;48.392;9.998;2023-03-01T05:23:31;6.00;;;4.63;;
9156;SDS011;4613;48.392;9.998;2023-03-01T05:26:20;3.58;;;2.83;;
9156;SDS011;4613;48.392;9.998;2023-03-01T05:29:10;7.55;;;4.35;;
9156;SDS011;4613;48.392;9.998;2023-03-01T05:32:00;6.05;;;3.85;;
9156;SDS011;4613;48.392;9.998;2023-03-01T05:34:54;5.93;;;4.03;;
9156;SDS011;4613;48.392;9.998;2023-03-01T05:37:46;5.18;;;4.10;;
9156;SDS011;4613;48.392;9.998;2023-03-01T05:40:36;5.53;;;3.67;;
9156;SDS011;4613;48.392;9.998;2023-03-01T05:43:32;6.90;;;4.35;;
9156;SDS011;4613;48.392;9.998;2023-03-01T05:46:24;4.70;;;3.88;;
9156;SDS011;4613;48.392;9.998;2023-03-01T05:49:13;7.53;;;4.32;;
9156;SDS011;4613;48.392;9.998;2023-03-01T05:52:02;7.45;;;4.30;;
9156;SDS011;4613;48.392;9.998;2023-03-01T05:54:52;6.57;;;3.90;;
9156;SDS011;4613;48.392;9.998;2023-03-01T05:57:41;6.65;;;3.80;;
9156;SDS011;4613;48.392;9.998;2023-03-01T06:00:31;5.90;;;3.53;;
9156;SDS011;4613;48.392;9.998;2023-03-01T06:03:21;5.95;;;4.43;;
9156;SDS011;4613;48.392;9.998;2023-03-01T06:06:10;5.10;;;3.47;;
9156;SDS011;4613;48.392;9.998;2023-03-01T06:08:59;5.25;;;3.42;;
9156;SDS011;4613;48.392;9.998;2023-03-01T06:11:48;6.95;;;4.10;;
9156;SDS011;4613;48.392;9.998;2023-03-01T06:14:37;8.02;;;4.45;;
9156;SDS011;4613;48.392;9.998;2023-03-01T06:17:29;7.47;;;4.18;;
9156;SDS011;4613;48.392;9.998;2023-03-01T06:20:20;6.80;;;3.83;;
9156;SDS011;4613;48.392;9.998;2023-03-01T06:23:11;6.60;;;4.13;;
9156;SDS011;4613;48.392;9.998;2023-03-01T06:29:07;7.47;;;4.15;;
9156;SDS011;4613;48.392;9.998;2023-03-01T06:31:57;6.43;;;4.03;;
9156;SDS011;4613;48.392;9.998;2023-03-01T06:34:46;7.60;;;4.82;;
9156;SDS011;4613;48.392;9.998;2023-03-01T06:37:36;6.85;;;4.00;;
9156;SDS011;4613;48.392;9.998;2023-03-01T06:40:26;5.25;;;3.78;;
9156;SDS011;4613;48.392;9.998;2023-03-01T06:43:16;6.45;;;4.00;;
9156;SDS011;4613;48.392;9.998;2023-03-01T06:46:05;6.40;;;4.20;;
9156;SDS011;4613;48.392;9.998;2023-03-01T06:48:55;7.13;;;4.40;;
9156;SDS011;4613;48.392;9.998;2023-03-01T06:51:44;5.55;;;3.80;;
9156;SDS011;4613;48.392;9.998;2023-03-01T06:54:34;10.52;;;4.35;;
9156;SDS011;4613;48.392;9.998;2023-03-01T06:57:23;5.32;;;3.55;;
9156;SDS011;4613;48.392;9.998;2023-03-01T07:00:13;3.53;;;3.03;;
9156;SDS011;4613;48.392;9.998;2023-03-01T07:03:03;6.72;;;4.05;;
9156;SDS011;4613;48.392;9.998;2023-03-01T07:05:52;5.32;;;3.53;;
9156;SDS011;4613;48.392;9.998;2023-03-01T07:08:41;5.95;;;4.20;;
9156;SDS011;4613;48.392;9.998;2023-03-01T07:11:30;6.93;;;4.10;;
9156;SDS011;4613;48.392;9.998;2023-03-01T07:14:21;5.20;;;3.72;;
9156;SDS011;4613;48.392;9.998;2023-03-01T07:17:13;6.35;;;3.85;;
9156;SDS011;4613;48.392;9.998;2023-03-01T07:20:02;5.63;;;4.18;;
9156;SDS011;4613;48.392;9.998;2023-03-01T07:22:55;5.68;;;3.90;;
9156;SDS011;4613;48.392;9.998;2023-03-01T07:25:51;7.53;;;4.38;;
9156;SDS011;4613;48.392;9.998;2023-03-01T07:28:42;7.20;;;4.43;;
9156;SDS011;4613;48.392;9.998;2023-03-01T07:31:32;5.53;;;3.97;;
9156;SDS011;4613;48.392;9.998;2023-03-01T07:34:22;7.20;;;4.18;;
9156;SDS011;4613;48.392;9.998;2023-03-01T07:37:11;7.35;;;4.03;;
9156;SDS011;4613;48.392;9.998;2023-03-01T07:40:01;9.65;;;4.60;;
9156;SDS011;4613;48.392;9.998;2023-03-01T07:42:54;7.68;;;4.28;;
9156;SDS011;4613;48.392;9.998;2023-03-01T07:45:47;6.47;;;4.72;;
9156;SDS011;4613;48.392;9.998;2023-03-01T07:48:36;6.70;;;4.25;;
9156;SDS011;4613;48.392;9.998;2023-03-01T07:51:26;6.38;;;4.18;;
9156;SDS011;4613;48.392;9.998;2023-03-01T07:54:15;6.97;;;4.38;;
9156;SDS011;4613;48.392;9.998;2023-03-01T07:57:04;9.38;;;4.88;;
9156;SDS011;4613;48.392;9.998;2023-03-01T07:59:54;7.28;;;4.72;;
9156;SDS011;4613;48.392;9.998;2023-03-01T08:02:43;6.78;;;4.45;;
9156;SDS011;4613;48.392;9.998;2023-03-01T08:05:32;4.93;;;3.65;;
9156;SDS011;4613;48.392;9.998;2023-03-01T08:08:22;8.02;;;5.28;;
9156;SDS011;4613;48.392;9.998;2023-03-01T08:11:12;8.65;;;4.15;;
9156;SDS011;4613;48.392;9.998;2023-03-01T08:14:03;9.77;;;4.90;;
9156;SDS011;4613;48.392;9.998;2023-03-01T08:16:53;6.00;;;4.00;;
9156;SDS011;4613;48.392;9.998;2023-03-01T08:19:45;5.90;;;4.18;;
9156;SDS011;4613;48.392;9.998;2023-03-01T08:22:34;6.90;;;4.38;;
9156;SDS011;4613;48.392;9.998;2023-03-01T08:25:23;5.55;;;4.13;;
9156;SDS011;4613;48.392;9.998;2023-03-01T08:28:13;9.85;;;4.50;;
9156;SDS011;4613;48.392;9.998;2023-03-01T08:31:02;6.18;;;3.50;;
9156;SDS011;4613;48.392;9.998;2023-03-01T08:34:02;7.47;;;4.03;;
9156;SDS011;4613;48.392;9.998;2023-03-01T08:36:54;8.27;;;4.40;;
9156;SDS011;4613;48.392;9.998;2023-03-01T08:39:43;6.47;;;4.70;;
9156;SDS011;4613;48.392;9.998;2023-03-01T08:42:32;7.57;;;4.78;;
9156;SDS011;4613;48.392;9.998;2023-03-01T08:45:22;5.00;;;3.70;;
9156;SDS011;4613;48.392;9.998;2023-03-01T08:48:11;4.65;;;3.42;;
9156;SDS011;4613;48.392;9.998;2023-03-01T08:51:10;8.63;;;4.55;;
9156;SDS011;4613;48.392;9.998;2023-03-01T08:54:38;9.07;;;3.88;;
9156;SDS011;4613;48.392;9.998;2023-03-01T08:57:20;5.53;;;3.47;;
9156;SDS011;4613;48.392;9.998;2023-03-01T09:00:10;6.90;;;4.20;;
9156;SDS011;4613;48.392;9.998;2023-03-01T09:02:59;5.63;;;3.78;;
9156;SDS011;4613;48.392;9.998;2023-03-01T09:05:49;8.30;;;4.28;;
9156;SDS011;4613;48.392;9.998;2023-03-01T09:08:41;6.45;;;4.03;;
9156;SDS011;4613;48.392;9.998;2023-03-01T09:11:31;8.20;;;4.63;;
9156;SDS011;4613;48.392;9.998;2023-03-01T09:14:21;7.35;;;4.93;;
9156;SDS011;4613;48.392;9.998;2023-03-01T09:17:10;5.50;;;4.25;;
9156;SDS011;4613;48.392;9.998;2023-03-01T09:19:59;7.80;;;4.07;;
9156;SDS011;4613;48.392;9.998;2023-03-01T09:22:49;5.78;;;3.60;;
9156;SDS011;4613;48.392;9.998;2023-03-01T09:25:38;7.10;;;4.10;;
9156;SDS011;4613;48.392;9.998;2023-03-01T09:28:31;10.02;;;4.97;;
9156;SDS011;4613;48.392;9.998;2023-03-01T09:31:20;8.15;;;4.57;;
9156;SDS011;4613;48.392;9.998;2023-03-01T09:34:11;6.88;;;4.70;;
9156;SDS011;4613;48.392;9.998;2023-03-01T09:37:02;10.32;;;5.53;;
9156;SDS011;4613;48.392;9.998;2023-03-01T09:39:51;6.88;;;4.65;;
9156;SDS011;4613;48.392;9.998;2023-03-01T09:42:45;7.53;;;4.55;;
9156;SDS011;4613;48.392;9.998;2023-03-01T09:45:40;6.63;;;4.13;;
9156;SDS011;4613;48.392;9.998;2023-03-01T09:48:45;7.93;;;4.88;;
9156;SDS011;4613;48.392;9.998;2023-03-01T09:51:41;7.40;;;4.97;;
9156;SDS011;4613;48.392;9.998;2023-03-01T09:54:34;7.10;;;4.75;;
9156;SDS011;4613;48.392;9.998;2023-03-01T09:57:38;6.20;;;4.32;;
9156;SDS011;4613;48.392;9.998;2023-03-01T10:00:52;5.80;;;4.13;;
9156;SDS011;4613;48.392;9.998;2023-03-01T10:03:46;11.38;;;5.45;;
9156;SDS011;4613;48.392;9.998;2023-03-01T10:10:28;3.90;;;3.38;;
9156;SDS011;4613;48.392;9.998;2023-03-01T10:19:40;6.90;;;4.85;;
9156;SDS011;4613;48.392;9.998;2023-03-01T10:22:31;7.05;;;4.72;;
9156;SDS011;4613;48.392;9.998;2023-03-01T10:25:38;7.13;;;4.85;;
9156;SDS011;4613;48.392;9.998;2023-03-01T10:31:47;8.70;;;4.78;;
9156;SDS011;4613;48.392;9.998;2023-03-01T10:34:38;9.55;;;5.15;;
9156;SDS011;4613;48.392;9.998;2023-03-01T10:37:29;7.82;;;4.47;;
9156;SDS011;4613;48.392;9.998;2023-03-01T10:40:18;7.15;;;4.90;;
9156;SDS011;4613;48.392;9.998;2023-03-01T10:43:10;10.65;;;5.95;;
9156;SDS011;4613;48.392;9.998;2023-03-01T10:46:01;11.50;;;6.32;;
9156;SDS011;4613;48.392;9.998;2023-03-01T10:52:11;8.88;;;5.47;;
9156;SDS011;4613;48.392;9.998;2023-03-01T11:01:04;6.60;;;4.82;;
9156;SDS011;4613;48.392;9.998;2023-03-01T11:04:13;8.98;;;5.10;;
9156;SDS011;4613;48.392;9.998;2023-03-01T11:07:02;9.60;;;5.50;;
9156;SDS011;4613;48.392;9.998;2023-03-01T11:09:52;9.00;;;4.95;;
9156;SDS011;4613;48.392;9.998;2023-03-01T11:12:42;9.88;;;5.68;;
9156;SDS011;4613;48.392;9.998;2023-03-01T11:15:31;9.13;;;5.07;;
9156;SDS011;4613;48.392;9.998;2023-03-01T11:18:21;8.43;;;5.18;;
9156;SDS011;4613;48.392;9.998;2023-03-01T11:21:11;7.10;;;4.65;;
9156;SDS011;4613;48.392;9.998;2023-03-01T11:24:01;11.13;;;6.40;;
9156;SDS011;4613;48.392;9.998;2023-03-01T11:26:54;8.32;;;5.40;;
9156;SDS011;4613;48.392;9.998;2023-03-01T11:29:45;7.50;;;5.32;;
9156;SDS011;4613;48.392;9.998;2023-03-01T11:33:05;8.88;;;4.97;;
9156;SDS011;4613;48.392;9.998;2023-03-01T11:36:07;8.27;;;5.32;;
9156;SDS011;4613;48.392;9.998;2023-03-01T11:42:56;9.95;;;5.45;;
9156;SDS011;4613;48.392;9.998;2023-03-01T11:55:26;9.60;;;6.70;;
9156;SDS011;4613;48.392;9.998;2023-03-01T11:58:47;8.23;;;5.55;;
9156;SDS011;4613;48.392;9.998;2023-03-01T12:05:07;11.15;;;5.90;;
9156;SDS011;4613;48.392;9.998;2023-03-01T12:08:09;9.55;;;5.47;;
9156;SDS011;4613;48.392;9.998;2023-03-01T12:17:43;7.35;;;4.55;;
9156;SDS011;4613;48.392;9.998;2023-03-01T12:37:35;9.23;;;5.53;;
9156;SDS011;4613;48.392;9.998;2023-03-01T12:47:44;7.33;;;4.80;;
9156;SDS011;4613;48.392;9.998;2023-03-01T12:50:44;8.03;;;5.53;;
9156;SDS011;4613;48.392;9.998;2023-03-01T12:56:34;9.83;;;5.67;;
9156;SDS011;4613;48.392;9.998;2023-03-01T12:59:32;11.57;;;5.63;;
9156;SDS011;4613;48.392;9.998;2023-03-01T13:02:31;9.43;;;5.50;;
9156;SDS011;4613;48.392;9.998;2023-03-01T13:08:49;9.60;;;5.80;;
9156;SDS011;4613;48.392;9.998;2023-03-01T13:11:42;9.93;;;5.33;;
9156;SDS011;4613;48.392;9.998;2023-03-01T13:17:39;7.90;;;4.83;;
9156;SDS011;4613;48.392;9.998;2023-03-01T13:23:34;9.07;;;5.10;;
9156;SDS011;4613;48.392;9.998;2023-03-01T13:26:26;7.97;;;5.47;;
9156;SDS011;4613;48.392;9.998;2023-03-01T13:29:25;8.63;;;5.03;;
9156;SDS011;4613;48.392;9.998;2023-03-01T13:38:36;9.80;;;5.77;;
9156;SDS011;4613;48.392;9.998;2023-03-01T13:44:37;10.25;;;5.85;;
9156;SDS011;4613;48.392;9.998;2023-03-01T13:47:27;8.10;;;5.30;;
9156;SDS011;4613;48.392;9.998;2023-03-01T13:50:27;10.65;;;5.47;;
9156;SDS011;4613;48.392;9.998;2023-03-01T13:53:21;9.48;;;6.03;;
9156;SDS011;4613;48.392;9.998;2023-03-01T13:56:15;10.27;;;6.05;;
9156;SDS011;4613;48.392;9.998;2023-03-01T13:59:06;8.80;;;4.83;;
9156;SDS011;4613;48.392;9.998;2023-03-01T14:02:16;9.65;;;5.68;;
9156;SDS011;4613;48.392;9.998;2023-03-01T14:05:05;10.88;;;5.75;;
9156;SDS011;4613;48.392;9.998;2023-03-01T14:08:00;7.85;;;5.28;;
9156;SDS011;4613;48.392;9.998;2023-03-01T14:17:25;8.10;;;5.65;;
9156;SDS011;4613;48.392;9.998;2023-03-01T14:20:29;9.48;;;4.95;;
9156;SDS011;4613;48.392;9.998;2023-03-01T14:23:22;8.40;;;4.85;;
9156;SDS011;4613;48.392;9.998;2023-03-01T14:26:12;11.23;;;5.43;;
9156;SDS011;4613;48.392;9.998;2023-03-01T14:29:02;6.57;;;4.45;;
9156;SDS011;4613;48.392;9.998;2023-03-01T14:31:51;9.70;;;5.40;;
9156;SDS011;4613;48.392;9.998;2023-03-01T14:34:44;10.35;;;4.97;;
9156;SDS011;4613;48.392;9.998;2023-03-01T14:37:35;9.50;;;5.40;;
9156;SDS011;4613;48.392;9.998;2023-03-01T14:40:26;10.43;;;5.40;;
9156;SDS011;4613;48.392;9.998;2023-03-01T14:43:22;7.40;;;4.47;;
9156;SDS011;4613;48.392;9.998;2023-03-01T14:46:23;8.90;;;4.90;;
9156;SDS011;4613;48.392;9.998;2023-03-01T14:49:29;6.97;;;4.65;;
9156;SDS011;4613;48.392;9.998;2023-03-01T14:52:21;8.75;;;5.18;;
9156;SDS011;4613;48.392;9.998;2023-03-01T14:55:19;8.20;;;5.22;;
9156;SDS011;4613;48.392;9.998;2023-03-01T14:58:15;9.55;;;5.50;;
9156;SDS011;4613;48.392;9.998;2023-03-01T15:01:10;9.13;;;5.60;;
9156;SDS011;4613;48.392;9.998;2023-03-01T15:04:07;8.05;;;5.05;;
9156;SDS011;4613;48.392;9.998;2023-03-01T15:07:00;6.95;;;4.85;;
9156;SDS011;4613;48.392;9.998;2023-03-01T15:09:53;7.43;;;4.70;;
9156;SDS011;4613;48.392;9.998;2023-03-01T15:12:42;8.02;;;5.10;;
9156;SDS011;4613;48.392;9.998;2023-03-01T15:15:32;7.38;;;4.10;;
9156;SDS011;4613;48.392;9.998;2023-03-01T15:18:35;8.35;;;4.72;;
9156;SDS011;4613;48.392;9.998;2023-03-01T15:21:26;9.85;;;5.00;;
9156;SDS011;4613;48.392;9.998;2023-03-01T15:24:25;9.82;;;5.30;;
9156;SDS011;4613;48.392;9.998;2023-03-01T15:27:17;8.35;;;4.90;;
9156;SDS011;4613;48.392;9.998;2023-03-01T15:30:17;7.65;;;5.05;;
9156;SDS011;4613;48.392;9.998;2023-03-01T15:33:16;8.00;;;5.07;;
9156;SDS011;4613;48.392;9.998;2023-03-01T15:36:30;7.13;;;4.32;;
9156;SDS011;4613;48.392;9.998;2023-03-01T15:39:52;8.07;;;4.32;;
9156;SDS011;4613;48.392;9.998;2023-03-01T15:42:43;7.85;;;5.03;;
9156;SDS011;4613;48.392;9.998;2023-03-01T15:45:33;7.25;;;4.88;;
9156;SDS011;4613;48.392;9.998;2023-03-01T15:48:23;6.80;;;4.40;;
9156;SDS011;4613;48.392;9.998;2023-03-01T15:51:14;7.13;;;5.18;;
9156;SDS011;4613;48.392;9.998;2023-03-01T15:54:06;9.23;;;4.93;;
9156;SDS011;4613;48.392;9.998;2023-03-01T15:57:12;7.38;;;4.88;;
9156;SDS011;4613;48.392;9.998;2023-03-01T16:00:03;6.63;;;4.50;;
9156;SDS011;4613;48.392;9.998;2023-03-01T16:03:00;8.05;;;4.78;;
9156;SDS011;4613;48.392;9.998;2023-03-01T16:05:49;7.85;;;5.05;;
9156;SDS011;4613;48.392;9.998;2023-03-01T16:08:39;9.18;;;4.82;;
9156;SDS011;4613;48.392;9.998;2023-03-01T16:11:29;6.75;;;4.80;;
9156;SDS011;4613;48.392;9.998;2023-03-01T16:14:20;7.65;;;4.45;;
9156;SDS011;4613;48.392;9.998;2023-03-01T16:17:09;5.65;;;4.03;;
9156;SDS011;4613;48.392;9.998;2023-03-01T16:19:58;6.78;;;4.43;;
9156;SDS011;4613;48.392;9.998;2023-03-01T16:22:47;8.82;;;4.28;;
9156;SDS011;4613;48.392;9.998;2023-03-01T16:25:37;10.27;;;5.00;;
9156;SDS011;4613;48.392;9.998;2023-03-01T16:28:26;8.50;;;4.47;;
9156;SDS011;4613;48.392;9.998;2023-03-01T16:31:17;7.70;;;4.97;;
9156;SDS011;4613;48.392;9.998;2023-03-01T16:34:07;6.43;;;3.83;;
9156;SDS011;4613;48.392;9.998;2023-03-01T16:36:57;8.20;;;4.50;;
9156;SDS011;4613;48.392;9.998;2023-03-01T16:39:46;8.35;;;4.30;;
9156;SDS011;4613;48.392;9.998;2023-03-01T16:42:35;5.95;;;4.05;;
9156;SDS011;4613;48.392;9.998;2023-03-01T16:45:33;8.10;;;4.88;;
9156;SDS011;4613;48.392;9.998;2023-03-01T16:48:24;7.50;;;4.47;;
9156;SDS011;4613;48.392;9.998;2023-03-01T16:51:14;7.00;;;4.05;;
9156;SDS011;4613;48.392;9.998;2023-03-01T16:54:04;8.55;;;4.32;;
9156;SDS011;4613;48.392;9.998;2023-03-01T16:56:53;7.13;;;4.47;;
9156;SDS011;4613;48.392;9.998;2023-03-01T16:59:42;9.73;;;4.93;;
9156;SDS011;4613;48.392;9.998;2023-03-01T17:02:32;13.15;;;4.35;;
9156;SDS011;4613;48.392;9.998;2023-03-01T17:05:21;5.80;;;4.20;;
9156;SDS011;4613;48.392;9.998;2023-03-01T17:08:12;5.20;;;3.95;;
9156;SDS011;4613;48.392;9.998;2023-03-01T17:11:06;8.98;;;5.07;;
9156;SDS011;4613;48.392;9.998;2023-03-01T17:13:59;8.77;;;4.60;;
9156;SDS011;4613;48.392;9.998;2023-03-01T17:16:49;9.27;;;4.90;;
9156;SDS011;4613;48.392;9.998;2023-03-01T17:19:38;6.40;;;4.32;;
9156;SDS011;4613;48.392;9.998;2023-03-01T17:22:30;7.25;;;4.80;;
9156;SDS011;4613;48.392;9.998;2023-03-01T17:25:20;8.88;;;4.68;;
9156;SDS011;4613;48.392;9.998;2023-03-01T17:28:09;7.45;;;4.88;;
9156;SDS011;4613;48.392;9.998;2023-03-01T17:31:03;6.72;;;4.65;;
9156;SDS011;4613;48.392;9.998;2023-03-01T17:33:56;6.95;;;4.40;;
9156;SDS011;4613;48.392;9.998;2023-03-01T17:36:45;9.45;;;4.28;;
9156;SDS011;4613;48.392;9.998;2023-03-01T17:39:38;7.63;;;4.68;;
9156;SDS011;4613;48.392;9.998;2023-03-01T17:42:27;7.85;;;4.55;;
9156;SDS011;4613;48.392;9.998;2023-03-01T17:45:17;7.75;;;4.28;;
9156;SDS011;4613;48.392;9.998;2023-03-01T17:48:06;7.38;;;4.95;;
9156;SDS011;4613;48.392;9.998;2023-03-01T17:50:55;8.98;;;5.07;;
9156;SDS011;4613;48.392;9.998;2023-03-01T17:53:44;9.73;;;5.32;;
9156;SDS011;4613;48.392;9.998;2023-03-01T17:56:33;8.70;;;5.40;;
9156;SDS011;4613;48.392;9.998;2023-03-01T17:59:26;9.05;;;4.65;;
9156;SDS011;4613;48.392;9.998;2023-03-01T18:02:21;8.35;;;4.88;;
9156;SDS011;4613;48.392;9.998;2023-03-01T18:05:10;9.05;;;4.78;;
9156;SDS011;4613;48.392;9.998;2023-03-01T18:08:00;6.03;;;4.15;;
9156;SDS011;4613;48.392;9.998;2023-03-01T18:10:56;7.22;;;4.57;;
9156;SDS011;4613;48.392;9.998;2023-03-01T18:13:47;8.07;;;4.90;;
9156;SDS011;4613;48.392;9.998;2023-03-01T18:16:36;7.20;;;4.22;;
9156;SDS011;4613;48.392;9.998;2023-03-01T18:19:27;7.55;;;4.70;;
9156;SDS011;4613;48.392;9.998;2023-03-01T18:22:17;7.10;;;5.00;;
9156;SDS011;4613;48.392;9.998;2023-03-01T18:25:06;7.13;;;4.55;;
9156;SDS011;4613;48.392;9.998;2023-03-01T18:27:56;8.25;;;4.18;;
9156;SDS011;4613;48.392;9.998;2023-03-01T18:30:46;6.88;;;4.32;;
9156;SDS011;4613;48.392;9.998;2023-03-01T18:33:35;9.40;;;5.28;;
9156;SDS011;4613;48.392;9.998;2023-03-01T18:36:26;7.15;;;4.25;;
9156;SDS011;4613;48.392;9.998;2023-03-01T18:39:17;8.73;;;5.13;;
9156;SDS011;4613;48.392;9.998;2023-03-01T18:42:08;7.38;;;4.82;;
9156;SDS011;4613;48.392;9.998;2023-03-01T18:44:57;8.35;;;4.78;;
9156;SDS011;4613;48.392;9.998;2023-03-01T18:47:47;8.10;;;4.90;;
9156;SDS011;4613;48.392;9.998;2023-03-01T18:50:37;7.65;;;4.93;;
9156;SDS011;4613;48.392;9.998;2023-03-01T18:53:27;7.10;;;4.78;;
9156;SDS011;4613;48.392;9.998;2023-03-01T18:56:17;7.90;;;4.68;;
9156;SDS011;4613;48.392;9.998;2023-03-01T18:59:06;6.55;;;4.38;;
9156;SDS011;4613;48.392;9.998;2023-03-01T19:01:56;9.93;;;5.10;;
9156;SDS011;4613;48.392;9.998;2023-03-01T19:04:48;7.13;;;4.72;;
9156;SDS011;4613;48.392;9.998;2023-03-01T19:07:38;8.88;;;4.53;;
9156;SDS011;4613;48.392;9.998;2023-03-01T19:10:28;8.18;;;4.60;;
9156;SDS011;4613;48.392;9.998;2023-03-01T19:13:19;5.93;;;4.40;;
9156;SDS011;4613;48.392;9.998;2023-03-01T19:16:13;7.35;;;4.60;;
9156;SDS011;4613;48.392;9.998;2023-03-01T19:19:04;7.00;;;4.78;;
9156;SDS011;4613;48.392;9.998;2023-03-01T19:21:56;9.63;;;4.97;;
9156;SDS011;4613;48.392;9.998;2023-03-01T19:24:45;10.25;;;5.30;;
9156;SDS011;4613;48.392;9.998;2023-03-01T19:27:34;9.48;;;5.53;;
9156;SDS011;4613;48.392;9.998;2023-03-01T19:30:23;8.43;;;4.90;;
9156;SDS011;4613;48.392;9.998;2023-03-01T19:33:14;13.38;;;5.13;;